sensor_id;sensor_type;location;lat;lon;timestamp;temperature;humidity
13488;DHT22;6816;48.506;9.050;2022-07-29T00:00:15;21.10;99.80
13488;DHT22;6816;48.506;9.050;2022-07-29T00:03:15;21.10;99.70
13488;DHT22;6816;48.506;9.050;2022-07-29T00:06:16;21.10;99.70
13488;DHT22;6816;48.506;9.050;2022-07-29T00:09:17;21.00;99.70
13488;DHT22;6816;48.506;9.050;2022-07-29T00:12:22;21.00;99.70
13488;DHT22;6816;48.506;9.050;2022-07-29T00:15:23;21.00;99.70
13488;DHT22;6816;48.506;9.050;2022-07-29T00:18:23;21.00;99.80
13488;DHT22;6816;48.506;9.050;2022-07-29T00:21:24;20.90;99.80
13488;DHT22;6816;48.506;9.050;2022-07-29T00:24:25;20.90;99.80
13488;DHT22;6816;48.506;9.050;2022-07-29T00:27:25;20.80;99.80
13488;DHT22;6816;48.506;9.050;2022-07-29T00:30:26;20.80;99.80
13488;DHT22;6816;48.506;9.050;2022-07-29T00:33:26;20.80;99.80
13488;DHT22;6816;48.506;9.050;2022-07-29T00:36:27;20.70;99.80
13488;DHT22;6816;48.506;9.050;2022-07-29T00:39:28;20.70;99.80
13488;DHT22;6816;48.506;9.050;2022-07-29T00:42:29;20.60;99.90
13488;DHT22;6816;48.506;9.050;2022-07-29T00:45:30;20.60;99.90
13488;DHT22;6816;48.506;9.050;2022-07-29T00:48:31;20.60;99.90
13488;DHT22;6816;48.506;9.050;2022-07-29T00:51:31;20.50;99.90
13488;DHT22;6816;48.506;9.050;2022-07-29T00:54:33;20.50;99.90
13488;DHT22;6816;48.506;9.050;2022-07-29T00:57:35;20.40;99.90
13488;DHT22;6816;48.506;9.050;2022-07-29T01:00:36;20.40;99.90
13488;DHT22;6816;48.506;9.050;2022-07-29T01:03:37;20.40;99.90
13488;DHT22;6816;48.506;9.050;2022-07-29T01:06:37;20.30;99.90
13488;DHT22;6816;48.506;9.050;2022-07-29T01:09:38;20.30;99.90
13488;DHT22;6816;48.506;9.050;2022-07-29T01:12:40;20.30;99.90
13488;DHT22;6816;48.506;9.050;2022-07-29T01:15:49;20.30;99.90
13488;DHT22;6816;48.506;9.050;2022-07-29T01:18:56;20.20;99.90
13488;DHT22;6816;48.506;9.050;2022-07-29T01:22:18;20.20;99.90
13488;DHT22;6816;48.506;9.050;2022-07-29T01:32:22;20.10;99.90
13488;DHT22;6816;48.506;9.050;2022-07-29T01:35:28;20.00;99.90
13488;DHT22;6816;48.506;9.050;2022-07-29T01:38:31;20.00;99.90
13488;DHT22;6816;48.506;9.050;2022-07-29T01:41:34;19.90;99.90
13488;DHT22;6816;48.506;9.050;2022-07-29T01:45:02;19.90;99.90
13488;DHT22;6816;48.506;9.050;2022-07-29T01:51:20;19.80;99.90
13488;DHT22;6816;48.506;9.050;2022-07-29T01:54:45;19.80;99.90
13488;DHT22;6816;48.506;9.050;2022-07-29T01:57:48;19.80;99.90
13488;DHT22;6816;48.506;9.050;2022-07-29T02:00:50;19.80;99.90
13488;DHT22;6816;48.506;9.050;2022-07-29T02:03:53;19.80;99.90
13488;DHT22;6816;48.506;9.050;2022-07-29T02:06:59;19.80;99.90
13488;DHT22;6816;48.506;9.050;2022-07-29T02:10:02;19.70;99.90
13488;DHT22;6816;48.506;9.050;2022-07-29T02:13:03;19.70;99.90
13488;DHT22;6816;48.506;9.050;2022-07-29T02:16:06;19.70;99.90
13488;DHT22;6816;48.506;9.050;2022-07-29T02:19:08;19.70;99.90
13488;DHT22;6816;48.506;9.050;2022-07-29T02:22:11;19.60;99.90
13488;DHT22;6816;48.506;9.050;2022-07-29T02:25:12;19.60;99.90
13488;DHT22;6816;48.506;9.050;2022-07-29T02:28:14;19.60;99.90
13488;DHT22;6816;48.506;9.050;2022-07-29T02:31:16;19.50;99.90
13488;DHT22;6816;48.506;9.050;2022-07-29T02:34:20;19.50;99.90
13488;DHT22;6816;48.506;9.050;2022-07-29T02:37:21;19.50;99.90
13488;DHT22;6816;48.506;9.050;2022-07-29T02:40:22;19.50;99.90
13488;DHT22;6816;48.506;9.050;2022-07-29T02:43:24;19.40;99.90
13488;DHT22;6816;48.506;9.050;2022-07-29T02:46:34;19.40;99.90
13488;DHT22;6816;48.506;9.050;2022-07-29T02:49:47;19.40;99.90
13488;DHT22;6816;48.506;9.050;2022-07-29T02:53:18;19.40;99.90
13488;DHT22;6816;48.506;9.050;2022-07-29T02:56:25;19.40;99.90
13488;DHT22;6816;48.506;9.050;2022-07-29T02:59:30;19.40;99.90
13488;DHT22;6816;48.506;9.050;2022-07-29T03:02:35;19.30;99.90
13488;DHT22;6816;48.506;9.050;2022-07-29T03:05:37;19.30;99.90
13488;DHT22;6816;48.506;9.050;2022-07-29T03:08:38;19.30;99.90
13488;DHT22;6816;48.506;9.050;2022-07-29T03:11:41;19.30;99.90
13488;DHT22;6816;48.506;9.050;2022-07-29T03:14:43;19.20;99.90
13488;DHT22;6816;48.506;9.050;2022-07-29T03:17:44;19.20;99.90
13488;DHT22;6816;48.506;9.050;2022-07-29T03:20:46;19.10;99.90
13488;DHT22;6816;48.506;9.050;2022-07-29T03:23:46;19.10;99.90
13488;DHT22;6816;48.506;9.050;2022-07-29T03:26:47;19.10;99.90
13488;DHT22;6816;48.506;9.050;2022-07-29T03:29:47;19.00;99.90
13488;DHT22;6816;48.506;9.050;2022-07-29T03:32:49;19.00;99.90
13488;DHT22;6816;48.506;9.050;2022-07-29T03:35:50;19.00;99.90
13488;DHT22;6816;48.506;9.050;2022-07-29T03:38:51;18.90;99.90
13488;DHT22;6816;48.506;9.050;2022-07-29T03:41:55;18.90;99.90
13488;DHT22;6816;48.506;9.050;2022-07-29T03:44:57;18.80;99.90
13488;DHT22;6816;48.506;9.050;2022-07-29T03:48:02;18.80;99.90
13488;DHT22;6816;48.506;9.050;2022-07-29T03:51:04;18.80;99.90
13488;DHT22;6816;48.506;9.050;2022-07-29T03:54:05;18.80;99.90
13488;DHT22;6816;48.506;9.050;2022-07-29T03:57:06;18.70;99.90
13488;DHT22;6816;48.506;9.050;2022-07-29T04:00:08;18.70;99.90
13488;DHT22;6816;48.506;9.050;2022-07-29T04:03:09;18.70;99.90
13488;DHT22;6816;48.506;9.050;2022-07-29T04:06:11;18.70;99.90
13488;DHT22;6816;48.506;9.050;2022-07-29T04:09:12;18.70;99.90
13488;DHT22;6816;48.506;9.050;2022-07-29T04:12:12;18.70;99.90
13488;DHT22;6816;48.506;9.050;2022-07-29T04:15:13;18.60;99.90
13488;DHT22;6816;48.506;9.050;2022-07-29T04:18:14;18.60;99.90
13488;DHT22;6816;48.506;9.050;2022-07-29T04:21:14;18.60;99.90
13488;DHT22;6816;48.506;9.050;2022-07-29T04:24:15;18.60;99.90
13488;DHT22;6816;48.506;9.050;2022-07-29T04:27:16;18.60;99.90
13488;DHT22;6816;48.506;9.050;2022-07-29T04:30:16;18.50;99.90
13488;DHT22;6816;48.506;9.050;2022-07-29T04:33:17;18.50;99.90
13488;DHT22;6816;48.506;9.050;2022-07-29T04:36:18;18.50;99.90
13488;DHT22;6816;48.506;9.050;2022-07-29T04:39:18;18.50;99.90
13488;DHT22;6816;48.506;9.050;2022-07-29T04:42:19;18.50;99.90
13488;DHT22;6816;48.506;9.050;2022-07-29T04:45:20;18.50;99.90
13488;DHT22;6816;48.506;9.050;2022-07-29T04:48:21;18.60;99.90
13488;DHT22;6816;48.506;9.050;2022-07-29T04:51:21;18.60;99.90
13488;DHT22;6816;48.506;9.050;2022-07-29T04:54:22;18.60;99.90
13488;DHT22;6816;48.506;9.050;2022-07-29T04:57:22;18.70;99.90
13488;DHT22;6816;48.506;9.050;2022-07-29T05:00:23;18.70;99.90
13488;DHT22;6816;48.506;9.050;2022-07-29T05:03:24;18.80;99.90
13488;DHT22;6816;48.506;9.050;2022-07-29T05:06:25;18.80;99.90
13488;DHT22;6816;48.506;9.050;2022-07-29T05:09:25;18.90;99.90
13488;DHT22;6816;48.506;9.050;2022-07-29T05:12:26;18.90;99.90
13488;DHT22;6816;48.506;9.050;2022-07-29T05:15:27;19.00;99.90
13488;DHT22;6816;48.506;9.050;2022-07-29T05:18:28;19.10;99.90
13488;DHT22;6816;48.506;9.050;2022-07-29T05:21:29;19.20;99.90
13488;DHT22;6816;48.506;9.050;2022-07-29T05:24:30;19.30;99.90
13488;DHT22;6816;48.506;9.050;2022-07-29T05:27:31;19.50;99.90
13488;DHT22;6816;48.506;9.050;2022-07-29T05:30:31;19.60;99.90
13488;DHT22;6816;48.506;9.050;2022-07-29T05:33:32;19.80;99.90
13488;DHT22;6816;48.506;9.050;2022-07-29T05:36:33;19.90;99.90
13488;DHT22;6816;48.506;9.050;2022-07-29T05:39:33;20.10;99.90
13488;DHT22;6816;48.506;9.050;2022-07-29T05:42:34;20.30;99.90
13488;DHT22;6816;48.506;9.050;2022-07-29T05:45:35;20.50;99.90
13488;DHT22;6816;48.506;9.050;2022-07-29T05:48:36;20.80;99.90
13488;DHT22;6816;48.506;9.050;2022-07-29T05:51:36;20.90;99.90
13488;DHT22;6816;48.506;9.050;2022-07-29T05:54:37;21.10;99.90
13488;DHT22;6816;48.506;9.050;2022-07-29T05:57:38;21.20;99.90
13488;DHT22;6816;48.506;9.050;2022-07-29T06:00:39;21.20;99.90
13488;DHT22;6816;48.506;9.050;2022-07-29T06:03:40;21.30;99.90
13488;DHT22;6816;48.506;9.050;2022-07-29T06:06:41;21.40;99.90
13488;DHT22;6816;48.506;9.050;2022-07-29T06:09:42;21.40;99.90
13488;DHT22;6816;48.506;9.050;2022-07-29T06:12:43;21.30;99.90
13488;DHT22;6816;48.506;9.050;2022-07-29T06:15:44;21.40;99.90
13488;DHT22;6816;48.506;9.050;2022-07-29T06:18:44;21.50;99.90
13488;DHT22;6816;48.506;9.050;2022-07-29T06:21:46;21.50;99.90
13488;DHT22;6816;48.506;9.050;2022-07-29T06:24:47;21.60;99.90
13488;DHT22;6816;48.506;9.050;2022-07-29T06:27:47;21.60;99.90
13488;DHT22;6816;48.506;9.050;2022-07-29T06:30:48;21.70;99.90
13488;DHT22;6816;48.506;9.050;2022-07-29T06:33:48;21.80;99.90
13488;DHT22;6816;48.506;9.050;2022-07-29T06:36:49;22.00;99.90
13488;DHT22;6816;48.506;9.050;2022-07-29T06:39:50;22.20;99.90
13488;DHT22;6816;48.506;9.050;2022-07-29T06:43:10;22.40;99.90
13488;DHT22;6816;48.506;9.050;2022-07-29T06:46:16;22.50;99.90
13488;DHT22;6816;48.506;9.050;2022-07-29T06:49:17;22.70;99.90
13488;DHT22;6816;48.506;9.050;2022-07-29T06:52:18;22.90;99.90
13488;DHT22;6816;48.506;9.050;2022-07-29T06:55:19;23.00;99.90
13488;DHT22;6816;48.506;9.050;2022-07-29T06:58:19;23.10;99.90
13488;DHT22;6816;48.506;9.050;2022-07-29T07:01:20;23.20;99.90
13488;DHT22;6816;48.506;9.050;2022-07-29T07:04:21;23.30;99.90
13488;DHT22;6816;48.506;9.050;2022-07-29T07:07:22;23.40;99.90
13488;DHT22;6816;48.506;9.050;2022-07-29T07:10:22;23.50;99.90
13488;DHT22;6816;48.506;9.050;2022-07-29T07:13:23;23.50;99.90
13488;DHT22;6816;48.506;9.050;2022-07-29T07:16:24;23.60;99.90
13488;DHT22;6816;48.506;9.050;2022-07-29T07:19:25;23.60;99.90
13488;DHT22;6816;48.506;9.050;2022-07-29T07:22:25;23.60;99.90
13488;DHT22;6816;48.506;9.050;2022-07-29T07:25:26;23.60;99.90
13488;DHT22;6816;48.506;9.050;2022-07-29T07:28:26;23.60;99.90
13488;DHT22;6816;48.506;9.050;2022-07-29T07:31:27;23.60;99.90
13488;DHT22;6816;48.506;9.050;2022-07-29T07:34:28;23.60;99.90
13488;DHT22;6816;48.506;9.050;2022-07-29T07:37:30;23.60;99.90
13488;DHT22;6816;48.506;9.050;2022-07-29T07:40:31;23.70;99.90
13488;DHT22;6816;48.506;9.050;2022-07-29T07:43:32;23.80;99.90
13488;DHT22;6816;48.506;9.050;2022-07-29T07:46:33;23.80;99.90
13488;DHT22;6816;48.506;9.050;2022-07-29T07:49:33;23.90;99.90
13488;DHT22;6816;48.506;9.050;2022-07-29T07:52:34;24.00;99.90
13488;DHT22;6816;48.506;9.050;2022-07-29T07:55:45;24.10;99.90
13488;DHT22;6816;48.506;9.050;2022-07-29T07:58:46;24.20;99.90
13488;DHT22;6816;48.506;9.050;2022-07-29T08:01:47;24.30;99.90
13488;DHT22;6816;48.506;9.050;2022-07-29T08:04:47;24.40;99.90
13488;DHT22;6816;48.506;9.050;2022-07-29T08:07:48;24.50;99.90
13488;DHT22;6816;48.506;9.050;2022-07-29T08:10:49;24.60;99.90
13488;DHT22;6816;48.506;9.050;2022-07-29T08:13:52;24.80;99.90
13488;DHT22;6816;48.506;9.050;2022-07-29T08:16:53;24.80;99.90
13488;DHT22;6816;48.506;9.050;2022-07-29T08:19:54;25.00;99.90
13488;DHT22;6816;48.506;9.050;2022-07-29T08:22:54;25.10;99.90
13488;DHT22;6816;48.506;9.050;2022-07-29T08:25:55;25.20;99.90
13488;DHT22;6816;48.506;9.050;2022-07-29T08:28:56;25.20;99.90
13488;DHT22;6816;48.506;9.050;2022-07-29T08:31:56;25.30;99.90
13488;DHT22;6816;48.506;9.050;2022-07-29T08:34:57;25.40;99.90
13488;DHT22;6816;48.506;9.050;2022-07-29T08:37:58;25.50;99.90
13488;DHT22;6816;48.506;9.050;2022-07-29T08:41:00;25.50;99.90
13488;DHT22;6816;48.506;9.050;2022-07-29T08:44:01;25.60;99.90
13488;DHT22;6816;48.506;9.050;2022-07-29T08:47:02;25.70;99.90
13488;DHT22;6816;48.506;9.050;2022-07-29T08:50:02;25.80;99.90
13488;DHT22;6816;48.506;9.050;2022-07-29T08:53:03;26.00;99.90
13488;DHT22;6816;48.506;9.050;2022-07-29T08:56:05;26.10;99.90
13488;DHT22;6816;48.506;9.050;2022-07-29T08:59:08;26.30;99.90
13488;DHT22;6816;48.506;9.050;2022-07-29T09:02:22;26.50;99.90
13488;DHT22;6816;48.506;9.050;2022-07-29T09:05:24;26.70;98.60
13488;DHT22;6816;48.506;9.050;2022-07-29T09:08:25;26.90;99.20
13488;DHT22;6816;48.506;9.050;2022-07-29T09:11:27;27.00;98.90
13488;DHT22;6816;48.506;9.050;2022-07-29T09:14:28;27.10;97.50
13488;DHT22;6816;48.506;9.050;2022-07-29T09:17:48;27.10;97.60
13488;DHT22;6816;48.506;9.050;2022-07-29T09:20:52;27.10;94.50
13488;DHT22;6816;48.506;9.050;2022-07-29T09:24:13;27.10;95.20
13488;DHT22;6816;48.506;9.050;2022-07-29T09:27:24;27.10;95.50
13488;DHT22;6816;48.506;9.050;2022-07-29T09:30:26;27.10;93.60
13488;DHT22;6816;48.506;9.050;2022-07-29T09:33:34;27.10;95.60
13488;DHT22;6816;48.506;9.050;2022-07-29T09:36:42;27.10;93.80
13488;DHT22;6816;48.506;9.050;2022-07-29T09:39:43;27.10;95.60
13488;DHT22;6816;48.506;9.050;2022-07-29T09:42:46;27.10;95.60
13488;DHT22;6816;48.506;9.050;2022-07-29T09:45:47;27.20;95.80
13488;DHT22;6816;48.506;9.050;2022-07-29T09:49:08;27.20;95.70
13488;DHT22;6816;48.506;9.050;2022-07-29T09:52:09;27.20;92.90
13488;DHT22;6816;48.506;9.050;2022-07-29T09:55:11;27.40;95.40
13488;DHT22;6816;48.506;9.050;2022-07-29T09:58:20;27.50;95.20
13488;DHT22;6816;48.506;9.050;2022-07-29T10:01:28;27.60;93.50
13488;DHT22;6816;48.506;9.050;2022-07-29T10:04:42;27.70;93.90
13488;DHT22;6816;48.506;9.050;2022-07-29T10:07:51;27.80;92.40
13488;DHT22;6816;48.506;9.050;2022-07-29T10:11:12;27.80;94.10
13488;DHT22;6816;48.506;9.050;2022-07-29T10:14:13;27.90;90.20
13488;DHT22;6816;48.506;9.050;2022-07-29T10:17:16;27.90;93.90
13488;DHT22;6816;48.506;9.050;2022-07-29T10:20:17;28.00;92.90
13488;DHT22;6816;48.506;9.050;2022-07-29T10:23:18;28.00;93.20
13488;DHT22;6816;48.506;9.050;2022-07-29T10:26:19;28.10;92.70
13488;DHT22;6816;48.506;9.050;2022-07-29T10:29:20;28.10;91.80
13488;DHT22;6816;48.506;9.050;2022-07-29T10:36:02;28.10;86.70
13488;DHT22;6816;48.506;9.050;2022-07-29T10:42:27;28.00;85.50
13488;DHT22;6816;48.506;9.050;2022-07-29T10:45:30;28.00;89.70
13488;DHT22;6816;48.506;9.050;2022-07-29T10:48:30;27.90;90.70
13488;DHT22;6816;48.506;9.050;2022-07-29T10:54:50;28.00;86.30
13488;DHT22;6816;48.506;9.050;2022-07-29T10:58:18;28.10;90.90
13488;DHT22;6816;48.506;9.050;2022-07-29T11:01:29;28.20;88.40
13488;DHT22;6816;48.506;9.050;2022-07-29T11:20:52;29.20;89.60
13488;DHT22;6816;48.506;9.050;2022-07-29T11:24:14;29.30;88.80
13488;DHT22;6816;48.506;9.050;2022-07-29T11:27:15;29.30;80.10
13488;DHT22;6816;48.506;9.050;2022-07-29T11:30:17;29.30;86.70
13488;DHT22;6816;48.506;9.050;2022-07-29T11:33:29;29.30;85.70
13488;DHT22;6816;48.506;9.050;2022-07-29T11:36:29;29.20;81.80
13488;DHT22;6816;48.506;9.050;2022-07-29T11:39:30;29.20;83.50
13488;DHT22;6816;48.506;9.050;2022-07-29T11:45:45;29.10;82.20
13488;DHT22;6816;48.506;9.050;2022-07-29T11:48:46;29.10;76.30
13488;DHT22;6816;48.506;9.050;2022-07-29T11:51:54;29.10;81.80
13488;DHT22;6816;48.506;9.050;2022-07-29T11:54:58;29.10;77.70
13488;DHT22;6816;48.506;9.050;2022-07-29T11:58:02;29.20;80.50
13488;DHT22;6816;48.506;9.050;2022-07-29T12:01:02;29.20;82.00
13488;DHT22;6816;48.506;9.050;2022-07-29T12:04:04;29.20;80.60
13488;DHT22;6816;48.506;9.050;2022-07-29T12:07:05;29.10;79.50
13488;DHT22;6816;48.506;9.050;2022-07-29T12:10:07;29.10;79.60
13488;DHT22;6816;48.506;9.050;2022-07-29T12:13:08;29.00;79.30
13488;DHT22;6816;48.506;9.050;2022-07-29T12:16:09;29.00;79.20
13488;DHT22;6816;48.506;9.050;2022-07-29T12:19:10;29.00;79.60
13488;DHT22;6816;48.506;9.050;2022-07-29T12:22:10;29.00;78.60
13488;DHT22;6816;48.506;9.050;2022-07-29T12:25:13;28.90;78.80
13488;DHT22;6816;48.506;9.050;2022-07-29T12:28:15;28.90;78.60
13488;DHT22;6816;48.506;9.050;2022-07-29T12:31:18;28.90;79.20
13488;DHT22;6816;48.506;9.050;2022-07-29T12:34:21;28.90;79.20
13488;DHT22;6816;48.506;9.050;2022-07-29T12:37:22;28.90;79.00
13488;DHT22;6816;48.506;9.050;2022-07-29T12:40:23;29.00;78.40
13488;DHT22;6816;48.506;9.050;2022-07-29T12:43:25;29.00;78.80
13488;DHT22;6816;48.506;9.050;2022-07-29T12:46:25;29.00;78.30
13488;DHT22;6816;48.506;9.050;2022-07-29T12:49:26;29.00;78.60
13488;DHT22;6816;48.506;9.050;2022-07-29T12:52:31;29.00;78.70
13488;DHT22;6816;48.506;9.050;2022-07-29T12:55:59;29.00;78.80
13488;DHT22;6816;48.506;9.050;2022-07-29T13:02:22;29.00;75.10
13488;DHT22;6816;48.506;9.050;2022-07-29T13:05:23;29.00;74.90
13488;DHT22;6816;48.506;9.050;2022-07-29T13:08:24;28.90;77.90
13488;DHT22;6816;48.506;9.050;2022-07-29T13:11:41;28.80;77.30
13488;DHT22;6816;48.506;9.050;2022-07-29T13:14:45;28.70;74.50
13488;DHT22;6816;48.506;9.050;2022-07-29T13:17:46;28.50;76.80
13488;DHT22;6816;48.506;9.050;2022-07-29T13:20:47;28.40;76.80
13488;DHT22;6816;48.506;9.050;2022-07-29T13:23:48;28.20;76.20
13488;DHT22;6816;48.506;9.050;2022-07-29T13:26:48;28.00;76.70
13488;DHT22;6816;48.506;9.050;2022-07-29T13:29:49;27.80;77.40
13488;DHT22;6816;48.506;9.050;2022-07-29T13:32:54;27.70;77.40
13488;DHT22;6816;48.506;9.050;2022-07-29T13:35:55;27.70;77.90
13488;DHT22;6816;48.506;9.050;2022-07-29T13:38:56;27.60;78.00
13488;DHT22;6816;48.506;9.050;2022-07-29T13:41:56;27.50;78.50
13488;DHT22;6816;48.506;9.050;2022-07-29T13:44:58;27.50;78.20
13488;DHT22;6816;48.506;9.050;2022-07-29T13:47:58;27.40;78.00
13488;DHT22;6816;48.506;9.050;2022-07-29T13:50:59;27.40;78.20
13488;DHT22;6816;48.506;9.050;2022-07-29T13:54:00;27.30;79.30
13488;DHT22;6816;48.506;9.050;2022-07-29T13:57:00;27.30;79.60
13488;DHT22;6816;48.506;9.050;2022-07-29T14:00:04;27.20;79.00
13488;DHT22;6816;48.506;9.050;2022-07-29T14:03:05;27.20;79.10
13488;DHT22;6816;48.506;9.050;2022-07-29T14:06:06;27.20;79.00
13488;DHT22;6816;48.506;9.050;2022-07-29T14:09:07;27.10;78.80
13488;DHT22;6816;48.506;9.050;2022-07-29T14:12:11;27.10;79.40
13488;DHT22;6816;48.506;9.050;2022-07-29T14:15:12;27.00;79.10
13488;DHT22;6816;48.506;9.050;2022-07-29T14:18:12;27.00;79.30
13488;DHT22;6816;48.506;9.050;2022-07-29T14:21:13;27.00;78.70
13488;DHT22;6816;48.506;9.050;2022-07-29T14:24:14;26.90;79.00
13488;DHT22;6816;48.506;9.050;2022-07-29T14:27:14;26.90;79.30
13488;DHT22;6816;48.506;9.050;2022-07-29T14:30:15;26.90;79.60
13488;DHT22;6816;48.506;9.050;2022-07-29T14:33:16;26.90;79.50
13488;DHT22;6816;48.506;9.050;2022-07-29T14:36:16;27.00;79.30
13488;DHT22;6816;48.506;9.050;2022-07-29T14:39:17;27.00;78.80
13488;DHT22;6816;48.506;9.050;2022-07-29T14:42:17;27.00;78.70
13488;DHT22;6816;48.506;9.050;2022-07-29T14:45:18;27.00;78.70
13488;DHT22;6816;48.506;9.050;2022-07-29T14:48:19;27.10;78.60
13488;DHT22;6816;48.506;9.050;2022-07-29T14:51:19;27.10;78.70
13488;DHT22;6816;48.506;9.050;2022-07-29T14:54:20;27.10;78.70
13488;DHT22;6816;48.506;9.050;2022-07-29T14:57:21;27.10;79.50
13488;DHT22;6816;48.506;9.050;2022-07-29T15:00:21;27.10;79.30
13488;DHT22;6816;48.506;9.050;2022-07-29T15:03:22;27.10;79.80
13488;DHT22;6816;48.506;9.050;2022-07-29T15:06:23;27.20;79.20
13488;DHT22;6816;48.506;9.050;2022-07-29T15:09:24;27.20;78.80
13488;DHT22;6816;48.506;9.050;2022-07-29T15:12:25;27.20;79.00
13488;DHT22;6816;48.506;9.050;2022-07-29T15:15:25;27.20;79.50
13488;DHT22;6816;48.506;9.050;2022-07-29T15:18:26;27.30;79.30
13488;DHT22;6816;48.506;9.050;2022-07-29T15:21:27;27.30;79.70
13488;DHT22;6816;48.506;9.050;2022-07-29T15:24:27;27.30;79.90
13488;DHT22;6816;48.506;9.050;2022-07-29T15:27:28;27.40;79.70
13488;DHT22;6816;48.506;9.050;2022-07-29T15:30:33;27.40;79.50
13488;DHT22;6816;48.506;9.050;2022-07-29T15:33:34;27.40;77.90
13488;DHT22;6816;48.506;9.050;2022-07-29T15:36:35;27.40;80.10
13488;DHT22;6816;48.506;9.050;2022-07-29T15:39:35;27.40;80.70
13488;DHT22;6816;48.506;9.050;2022-07-29T15:42:37;27.50;80.30
13488;DHT22;6816;48.506;9.050;2022-07-29T15:45:39;27.40;80.50
13488;DHT22;6816;48.506;9.050;2022-07-29T15:48:40;27.40;80.30
13488;DHT22;6816;48.506;9.050;2022-07-29T15:51:42;27.50;80.60
13488;DHT22;6816;48.506;9.050;2022-07-29T15:54:42;27.40;81.00
13488;DHT22;6816;48.506;9.050;2022-07-29T15:57:43;27.50;81.30
13488;DHT22;6816;48.506;9.050;2022-07-29T16:00:44;27.50;82.00
13488;DHT22;6816;48.506;9.050;2022-07-29T16:03:44;27.50;81.50
13488;DHT22;6816;48.506;9.050;2022-07-29T16:06:46;27.60;81.60
13488;DHT22;6816;48.506;9.050;2022-07-29T16:09:47;27.60;81.50
13488;DHT22;6816;48.506;9.050;2022-07-29T16:12:48;27.60;81.30
13488;DHT22;6816;48.506;9.050;2022-07-29T16:15:48;27.70;80.30
13488;DHT22;6816;48.506;9.050;2022-07-29T16:18:49;27.70;80.60
13488;DHT22;6816;48.506;9.050;2022-07-29T16:21:50;27.70;80.00
13488;DHT22;6816;48.506;9.050;2022-07-29T16:24:50;27.70;80.00
13488;DHT22;6816;48.506;9.050;2022-07-29T16:27:51;27.80;79.70
13488;DHT22;6816;48.506;9.050;2022-07-29T16:30:51;27.80;79.70
13488;DHT22;6816;48.506;9.050;2022-07-29T16:33:53;27.80;79.60
13488;DHT22;6816;48.506;9.050;2022-07-29T16:36:53;27.80;79.50
13488;DHT22;6816;48.506;9.050;2022-07-29T16:39:54;27.80;79.10
13488;DHT22;6816;48.506;9.050;2022-07-29T16:42:54;27.80;79.30
13488;DHT22;6816;48.506;9.050;2022-07-29T16:45:55;27.80;79.70
13488;DHT22;6816;48.506;9.050;2022-07-29T16:48:56;27.80;79.00
13488;DHT22;6816;48.506;9.050;2022-07-29T16:51:56;27.80;78.80
13488;DHT22;6816;48.506;9.050;2022-07-29T16:54:57;27.70;79.00
13488;DHT22;6816;48.506;9.050;2022-07-29T16:57:58;27.70;78.20
13488;DHT22;6816;48.506;9.050;2022-07-29T17:00:59;27.70;78.40
13488;DHT22;6816;48.506;9.050;2022-07-29T17:03:59;27.70;79.10
13488;DHT22;6816;48.506;9.050;2022-07-29T17:07:06;27.70;78.60
13488;DHT22;6816;48.506;9.050;2022-07-29T17:10:07;27.60;78.90
13488;DHT22;6816;48.506;9.050;2022-07-29T17:13:08;27.70;78.50
13488;DHT22;6816;48.506;9.050;2022-07-29T17:16:08;27.60;77.60
13488;DHT22;6816;48.506;9.050;2022-07-29T17:19:09;27.60;77.10
13488;DHT22;6816;48.506;9.050;2022-07-29T17:22:10;27.50;76.40
13488;DHT22;6816;48.506;9.050;2022-07-29T17:25:10;27.50;76.20
13488;DHT22;6816;48.506;9.050;2022-07-29T17:28:13;27.40;76.00
13488;DHT22;6816;48.506;9.050;2022-07-29T17:31:14;27.40;76.60
13488;DHT22;6816;48.506;9.050;2022-07-29T17:34:14;27.40;75.20
13488;DHT22;6816;48.506;9.050;2022-07-29T17:37:15;27.30;75.20
13488;DHT22;6816;48.506;9.050;2022-07-29T17:40:16;27.30;74.80
13488;DHT22;6816;48.506;9.050;2022-07-29T17:43:16;27.30;73.70
13488;DHT22;6816;48.506;9.050;2022-07-29T17:46:18;27.30;73.70
13488;DHT22;6816;48.506;9.050;2022-07-29T17:49:19;27.20;73.10
13488;DHT22;6816;48.506;9.050;2022-07-29T17:52:20;27.20;73.40
13488;DHT22;6816;48.506;9.050;2022-07-29T17:55:20;27.20;73.30
13488;DHT22;6816;48.506;9.050;2022-07-29T17:58:21;27.20;73.60
13488;DHT22;6816;48.506;9.050;2022-07-29T18:01:22;27.20;74.00
13488;DHT22;6816;48.506;9.050;2022-07-29T18:04:22;27.10;73.60
13488;DHT22;6816;48.506;9.050;2022-07-29T18:07:23;27.10;73.50
13488;DHT22;6816;48.506;9.050;2022-07-29T18:10:24;27.10;73.60
13488;DHT22;6816;48.506;9.050;2022-07-29T18:13:25;27.10;73.80
13488;DHT22;6816;48.506;9.050;2022-07-29T18:16:26;27.10;73.60
13488;DHT22;6816;48.506;9.050;2022-07-29T18:19:26;27.10;73.50
13488;DHT22;6816;48.506;9.050;2022-07-29T18:22:28;27.10;73.60
13488;DHT22;6816;48.506;9.050;2022-07-29T18:25:29;27.10;73.50
13488;DHT22;6816;48.506;9.050;2022-07-29T18:28:30;27.10;73.40
13488;DHT22;6816;48.506;9.050;2022-07-29T18:31:32;27.10;73.50
13488;DHT22;6816;48.506;9.050;2022-07-29T18:34:32;27.00;73.30
13488;DHT22;6816;48.506;9.050;2022-07-29T18:37:33;27.00;73.40
13488;DHT22;6816;48.506;9.050;2022-07-29T18:40:35;26.90;73.10
13488;DHT22;6816;48.506;9.050;2022-07-29T18:43:38;26.90;73.80
13488;DHT22;6816;48.506;9.050;2022-07-29T18:46:38;26.80;73.50
13488;DHT22;6816;48.506;9.050;2022-07-29T18:49:39;26.70;73.50
13488;DHT22;6816;48.506;9.050;2022-07-29T18:52:40;26.60;73.60
13488;DHT22;6816;48.506;9.050;2022-07-29T18:55:41;26.50;73.70
13488;DHT22;6816;48.506;9.050;2022-07-29T18:58:41;26.40;73.70
13488;DHT22;6816;48.506;9.050;2022-07-29T19:01:42;26.20;74.00
13488;DHT22;6816;48.506;9.050;2022-07-29T19:04:43;26.20;73.90
13488;DHT22;6816;48.506;9.050;2022-07-29T19:07:44;26.10;74.00
13488;DHT22;6816;48.506;9.050;2022-07-29T19:10:44;26.00;74.10
13488;DHT22;6816;48.506;9.050;2022-07-29T19:13:45;25.90;74.30
13488;DHT22;6816;48.506;9.050;2022-07-29T19:16:46;25.80;74.40
13488;DHT22;6816;48.506;9.050;2022-07-29T19:19:47;25.60;74.20
13488;DHT22;6816;48.506;9.050;2022-07-29T19:22:49;25.50;74.30
13488;DHT22;6816;48.506;9.050;2022-07-29T19:25:50;25.40;74.30
13488;DHT22;6816;48.506;9.050;2022-07-29T19:28:50;25.30;74.40
13488;DHT22;6816;48.506;9.050;2022-07-29T19:31:51;25.20;74.50
13488;DHT22;6816;48.506;9.050;2022-07-29T19:34:52;25.10;74.50
13488;DHT22;6816;48.506;9.050;2022-07-29T19:38:12;25.00;74.70
13488;DHT22;6816;48.506;9.050;2022-07-29T19:41:12;24.80;75.00
13488;DHT22;6816;48.506;9.050;2022-07-29T19:44:15;24.70;75.40
13488;DHT22;6816;48.506;9.050;2022-07-29T19:47:16;24.60;75.70
13488;DHT22;6816;48.506;9.050;2022-07-29T19:50:17;24.50;76.30
13488;DHT22;6816;48.506;9.050;2022-07-29T19:53:17;24.40;76.80
13488;DHT22;6816;48.506;9.050;2022-07-29T19:56:18;24.30;76.90
13488;DHT22;6816;48.506;9.050;2022-07-29T19:59:19;24.20;77.20
13488;DHT22;6816;48.506;9.050;2022-07-29T20:02:19;24.10;77.60
13488;DHT22;6816;48.506;9.050;2022-07-29T20:05:20;24.00;78.00
13488;DHT22;6816;48.506;9.050;2022-07-29T20:08:21;24.00;78.60
13488;DHT22;6816;48.506;9.050;2022-07-29T20:11:21;23.90;78.90